Time;durP1;ratioP1;P1;durP2;ratioP2;P2;SDS_P1;SDS_P2;PMS_P1;PMS_P2;Temp;Humidity;BMP_temperature;BMP_pressure;BME280_temperature;BME280_humidity;BME280_pressure;Samples;Min_cycle;Max_cycle;Signal;HPM_P1;HPM_P2
2021/11/09 00:01:58;;;;;;;3.83;2.33;;;7.70;99.90;;;;;;5079235;28;20039;-83
2021/11/09 00:04:29;;;;;;;3.60;3.30;;;7.70;99.90;;;;;;5077600;28;20056;-81
2021/11/09 00:07:04;;;;;;;3.67;1.90;;;7.60;99.90;;;;;;5060509;28;20113;-83
2021/11/09 00:09:45;;;;;;;3.72;2.45;;;7.60;99.90;;;;;;5078010;28;20056;-82
2021/11/09 00:12:11;;;;;;;2.45;1.83;;;7.50;99.90;;;;;;5098303;28;20123;-82
2021/11/09 00:14:36;;;;;;;2.47;2.13;;;7.40;99.90;;;;;;5095299;28;20123;-83
2021/11/09 00:17:03;;;;;;;3.28;2.53;;;7.70;99.90;;;;;;5081563;28;20055;-83
2021/11/09 00:19:29;;;;;;;5.15;1.88;;;7.40;99.90;;;;;;5065109;28;20059;-81
2021/11/09 00:21:55;;;;;;;1.60;1.50;;;7.30;99.90;;;;;;5099231;28;20048;-83
2021/11/09 00:24:20;;;;;;;2.70;2.15;;;7.30;99.90;;;;;;5082606;28;20378;-82
2021/11/09 00:26:47;;;;;;;2.45;2.17;;;7.20;99.90;;;;;;5062173;28;20045;-82
2021/11/09 00:29:12;;;;;;;;;;;7.20;99.90;;;;;;5066148;28;20047;-81
2021/11/09 00:31:38;;;;;;;4.28;2.47;;;7.20;99.90;;;;;;5063699;28;20441;-81
2021/11/09 00:34:05;;;;;;;1.70;1.33;;;7.20;99.90;;;;;;5089485;28;20059;-84
2021/11/09 00:36:30;;;;;;;2.40;1.73;;;7.10;99.90;;;;;;5038479;28;20067;-81
2021/11/09 00:38:57;;;;;;;2.95;1.98;;;7.10;99.90;;;;;;5064178;28;20086;-83
2021/11/09 00:41:23;;;;;;;4.68;2.38;;;7.10;99.90;;;;;;5063420;28;20429;-83
2021/11/09 00:43:48;;;;;;;5.20;2.03;;;7.10;99.90;;;;;;5065573;28;20050;-80
2021/11/09 00:46:14;;;;;;;4.25;2.47;;;7.10;99.90;;;;;;5110025;28;20131;-83
2021/11/09 00:48:40;;;;;;;2.00;1.52;;;7.00;99.90;;;;;;5065529;28;20543;-85
2021/11/09 00:51:06;;;;;;;5.00;2.17;;;7.10;99.90;;;;;;5098847;28;20064;-84
2021/11/09 00:53:32;;;;;;;1.98;1.10;;;7.10;99.90;;;;;;5065726;28;20409;-84
2021/11/09 00:55:58;;;;;;;;;;;7.00;99.90;;;;;;5065324;28;20048;-83
2021/11/09 00:58:23;;;;;;;2.25;1.60;;;7.00;99.90;;;;;;5100489;28;19920;-83
2021/11/09 01:00:49;;;;;;;4.00;1.42;;;7.10;99.90;;;;;;5047654;28;20084;-82
2021/11/09 01:03:15;;;;;;;6.70;2.47;;;7.00;99.90;;;;;;5095820;28;20430;-83
2021/11/09 01:05:42;;;;;;;6.03;1.65;;;7.00;99.90;;;;;;5063062;28;20076;-83
2021/11/09 01:08:13;;;;;;;6.72;2.78;;;7.30;99.90;;;;;;5057182;28;20059;-82
2021/11/09 01:10:46;;;;;;;2.63;1.65;;;7.00;99.90;;;;;;5034094;28;20366;-81
2021/11/09 01:13:13;;;;;;;3.42;2.53;;;7.00;99.90;;;;;;5055532;28;20456;-82
2021/11/09 01:15:47;;;;;;;5.90;3.35;;;7.00;99.90;;;;;;5085166;28;20054;-82
2021/11/09 01:18:13;;;;;;;4.43;2.22;;;6.90;99.90;;;;;;5091761;28;20386;-83
2021/11/09 01:20:39;;;;;;;2.85;1.92;;;6.90;99.90;;;;;;5091828;28;20464;-81
2021/11/09 01:23:05;;;;;;;3.85;2.75;;;6.80;99.90;;;;;;5053350;28;20051;-82
2021/11/09 01:25:32;;;;;;;5.10;2.20;;;6.70;99.90;;;;;;5081086;28;20059;-82
2021/11/09 01:27:59;;;;;;;3.03;1.48;;;6.70;99.90;;;;;;5044842;28;20036;-81
2021/11/09 01:30:25;;;;;;;3.08;1.92;;;6.70;99.90;;;;;;5089515;28;20040;-80
2021/11/09 01:32:52;;;;;;;10.32;2.00;;;6.70;99.90;;;;;;5086300;28;20040;-82
2021/11/09 01:35:19;;;;;;;2.58;1.45;;;6.70;99.90;;;;;;5067601;28;20044;-81
2021/11/09 01:37:45;;;;;;;2.60;2.40;;;6.60;99.90;;;;;;5080305;28;20493;-81
2021/11/09 01:40:12;;;;;;;;;;;6.70;99.90;;;;;;5088528;28;20041;-80
2021/11/09 01:42:38;;;;;;;3.00;2.28;;;6.60;99.90;;;;;;5098235;27;19978;-82
2021/11/09 01:45:06;;;;;;;;;;;7.00;99.90;;;;;;5106232;28;20058;-82
2021/11/09 01:47:31;;;;;;;10.27;3.30;;;6.60;99.90;;;;;;5073229;28;19981;-79
2021/11/09 01:49:57;;;;;;;1.85;1.52;;;6.60;99.90;;;;;;5105886;27;20044;-79
2021/11/09 01:52:23;;;;;;;1.90;1.70;;;6.50;99.90;;;;;;5085089;28;20048;-80
2021/11/09 01:54:49;;;;;;;2.90;2.30;;;6.50;99.90;;;;;;5103996;28;20028;-82
2021/11/09 01:57:14;;;;;;;3.67;3.33;;;6.50;99.90;;;;;;5104183;28;20569;-83
2021/11/09 01:59:40;;;;;;;6.20;3.53;;;6.50;99.90;;;;;;5102293;28;20040;-83
2021/11/09 02:02:06;;;;;;;3.53;2.30;;;6.50;99.90;;;;;;5068800;28;20478;-83
2021/11/09 02:04:32;;;;;;;1.95;1.73;;;6.50;99.90;;;;;;5071115;28;20037;-81
2021/11/09 02:06:58;;;;;;;4.72;3.17;;;6.50;99.90;;;;;;5070247;28;20075;-79
2021/11/09 02:09:23;;;;;;;3.40;2.85;;;6.40;99.90;;;;;;5101741;28;20204;-79
2021/11/09 02:11:49;;;;;;;7.45;2.47;;;6.40;99.90;;;;;;5071273;28;20037;-81
2021/11/09 02:14:17;;;;;;;2.33;2.13;;;6.30;99.90;;;;;;5088515;28;20440;-80
2021/11/09 02:16:43;;;;;;;3.33;2.60;;;6.30;99.90;;;;;;5070762;28;20033;-80
2021/11/09 02:19:10;;;;;;;4.20;3.33;;;6.30;99.90;;;;;;5071438;28;20086;-80
2021/11/09 02:21:35;;;;;;;10.05;2.95;;;6.30;99.90;;;;;;5095890;27;20048;-79
2021/11/09 02:24:02;;;;;;;12.63;2.75;;;6.30;99.90;;;;;;5072673;28;20048;-82
2021/11/09 02:26:29;;;;;;;2.65;2.45;;;6.30;99.90;;;;;;5086568;28;20032;-82
2021/11/09 02:28:57;;;;;;;7.63;2.60;;;6.20;99.90;;;;;;5104914;28;20044;-82
2021/11/09 02:31:24;;;;;;;4.35;3.17;;;6.20;99.90;;;;;;5100517;28;20075;-81
2021/11/09 02:33:50;;;;;;;5.90;3.78;;;6.20;99.90;;;;;;5106816;27;20497;-82
2021/11/09 02:36:17;;;;;;;3.83;2.53;;;6.20;99.90;;;;;;5099967;28;20040;-81
2021/11/09 02:38:44;;;;;;;3.35;2.20;;;5.80;99.90;;;;;;5088493;28;20189;-80
2021/11/09 02:41:10;;;;;;;6.78;3.22;;;6.20;99.90;;;;;;5068475;28;20105;-84
2021/11/09 02:43:36;;;;;;;4.75;2.67;;;6.20;99.90;;;;;;5089009;28;20048;-82
2021/11/09 02:48:44;;;;;;;2.67;2.33;;;6.10;99.90;;;;;;5105113;28;20397;-82
2021/11/09 02:51:14;;;;;;;5.40;2.88;;;6.10;99.90;;;;;;5067636;28;20482;-81
2021/11/09 02:53:47;;;;;;;6.70;3.05;;;6.10;99.90;;;;;;5103584;28;20058;-83
2021/11/09 03:01:39;;;;;;;5.43;3.05;;;6.00;99.90;;;;;;5036776;28;20089;-81
2021/11/09 03:11:36;;;;;;;3.38;2.28;;;5.90;99.90;;;;;;5104384;28;20434;-80
2021/11/09 03:14:02;;;;;;;2.72;2.00;;;5.90;99.90;;;;;;5091818;28;20067;-80
2021/11/09 03:16:32;;;;;;;5.45;2.30;;;5.90;99.90;;;;;;5108905;27;20048;-80
2021/11/09 03:19:09;;;;;;;6.45;3.20;;;5.80;99.90;;;;;;5066553;28;20594;-82
2021/11/09 03:44:19;;;;;;;21.13;2.60;;;5.60;99.90;;;;;;5097259;28;20135;-79
2021/11/09 03:46:59;;;;;;;2.03;1.83;;;5.60;99.90;;;;;;5082188;28;20041;-79
2021/11/09 03:49:28;;;;;;;10.20;3.47;;;5.60;99.90;;;;;;5065300;28;20047;-79
2021/11/09 03:51:55;;;;;;;3.13;2.60;;;5.60;99.90;;;;;;5102199;28;20146;-80
2021/11/09 03:54:27;;;;;;;3.90;2.63;;;5.70;99.90;;;;;;5101763;28;20131;-82
2021/11/09 04:07:54;;;;;;;2.13;1.33;;;5.60;99.90;;;;;;5089991;28;20432;-83
2021/11/09 04:10:29;;;;;;;3.40;2.42;;;5.70;99.90;;;;;;5066558;28;20079;-80
2021/11/09 04:31:55;;;;;;;8.20;2.50;;;5.60;99.90;;;;;;5023493;28;20040;-81
2021/11/09 04:50:59;;;;;;;6.47;2.72;;;5.50;99.90;;;;;;5085870;28;20049;-81
2021/11/09 05:09:34;;;;;;;3.50;2.67;;;5.50;99.90;;;;;;5052418;28;20051;-81
2021/11/09 05:12:00;;;;;;;4.07;2.83;;;5.50;99.90;;;;;;5072958;28;20063;-80
2021/11/09 05:14:26;;;;;;;3.38;2.47;;;6.10;99.90;;;;;;5055171;28;20041;-82
2021/11/09 05:16:52;;;;;;;;;;;5.50;99.90;;;;;;5104749;28;20051;-84
2021/11/09 05:19:17;;;;;;;6.93;2.05;;;5.50;99.90;;;;;;5073508;28;19916;-81
2021/11/09 05:21:44;;;;;;;13.65;2.42;;;5.50;99.90;;;;;;5088863;28;20048;-79
2021/11/09 05:24:10;;;;;;;;;;;5.50;99.90;;;;;;5106884;28;20044;-82
2021/11/09 05:26:38;;;;;;;2.05;1.88;;;5.50;99.90;;;;;;5102595;28;20006;-81
2021/11/09 05:29:04;;;;;;;4.93;2.60;;;5.50;99.90;;;;;;5107119;28;20051;-80
2021/11/09 05:31:30;;;;;;;2.88;2.08;;;5.50;99.90;;;;;;5101893;27;20048;-80
2021/11/09 05:33:57;;;;;;;1.83;1.73;;;5.40;99.90;;;;;;5073069;28;20040;-79
2021/11/09 05:36:29;;;;;;;4.55;2.60;;;5.50;99.90;;;;;;5103281;28;20554;-81
2021/11/09 05:39:14;;;;;;;13.30;3.25;;;5.70;99.90;;;;;;5086012;28;20392;-83
2021/11/09 05:41:42;;;;;;;3.92;3.28;;;5.50;99.90;;;;;;5054173;28;20063;-82
2021/11/09 05:44:08;;;;;;;10.15;3.42;;;5.50;99.90;;;;;;5106278;27;20056;-82
2021/11/09 05:46:36;;;;;;;3.00;2.45;;;5.50;99.90;;;;;;5065469;28;20048;-82
2021/11/09 05:49:03;;;;;;;10.00;1.88;;;5.50;99.90;;;;;;5068539;28;20032;-80
2021/11/09 05:51:29;;;;;;;3.70;2.65;;;5.50;99.90;;;;;;5081783;28;20032;-81
2021/11/09 05:53:55;;;;;;;4.13;3.75;;;5.60;99.90;;;;;;5100161;28;20032;-79
2021/11/09 05:56:21;;;;;;;4.70;3.05;;;5.50;99.90;;;;;;5072231;28;20382;-81
2021/11/09 05:58:47;;;;;;;5.93;2.42;;;5.60;99.90;;;;;;5069171;28;20486;-80
2021/11/09 06:01:13;;;;;;;3.63;3.08;;;5.60;99.90;;;;;;5089004;28;20248;-80
2021/11/09 06:03:38;;;;;;;2.47;2.22;;;5.50;99.90;;;;;;5071706;28;20051;-80
2021/11/09 06:06:05;;;;;;;10.68;4.75;;;5.50;99.90;;;;;;5065319;28;20041;-81
2021/11/09 06:08:30;;;;;;;;;;;5.40;99.90;;;;;;5084016;28;20043;-82
2021/11/09 06:10:56;;;;;;;4.85;2.92;;;5.40;99.90;;;;;;5105385;28;20031;-81
2021/11/09 06:13:21;;;;;;;2.75;2.45;;;5.50;99.90;;;;;;5070724;28;20037;-81
2021/11/09 06:15:47;;;;;;;4.28;3.85;;;5.50;99.90;;;;;;5071841;28;20045;-82
2021/11/09 06:18:13;;;;;;;16.10;3.92;;;5.40;99.90;;;;;;5056617;28;20048;-80
2021/11/09 06:20:39;;;;;;;4.47;2.90;;;5.50;99.90;;;;;;5108392;28;20040;-80
2021/11/09 06:23:05;;;;;;;4.13;3.15;;;5.50;99.90;;;;;;5105369;28;20032;-79
2021/11/09 06:25:31;;;;;;;7.25;3.42;;;5.50;99.90;;;;;;5082425;28;20040;-79
2021/11/09 06:27:57;;;;;;;12.48;3.83;;;5.50;99.90;;;;;;5066816;28;20117;-79
2021/11/09 06:30:23;;;;;;;10.10;5.82;;;5.50;99.90;;;;;;5098957;28;20037;-79
2021/11/09 06:32:50;;;;;;;6.78;3.38;;;5.50;99.90;;;;;;5099660;28;20044;-80
2021/11/09 06:35:15;;;;;;;;;;;5.50;99.90;;;;;;5070973;28;20381;-79
2021/11/09 06:37:41;;;;;;;3.53;2.33;;;5.50;99.90;;;;;;5106571;27;19916;-80
2021/11/09 06:40:08;;;;;;;3.33;2.50;;;5.50;99.90;;;;;;5093813;28;20390;-79
2021/11/09 06:42:34;;;;;;;6.72;3.80;;;5.50;99.90;;;;;;5068960;28;20082;-80
2021/11/09 06:45:00;;;;;;;5.35;2.67;;;5.60;99.90;;;;;;5104483;28;20057;-80
2021/11/09 06:47:26;;;;;;;7.47;2.30;;;5.50;99.90;;;;;;5104499;28;20048;-79
2021/11/09 06:49:53;;;;;;;6.57;3.35;;;5.90;99.90;;;;;;5054124;28;20063;-80
2021/11/09 06:52:19;;;;;;;2.53;2.30;;;5.60;99.90;;;;;;5070437;28;20037;-83
2021/11/09 06:54:44;;;;;;;6.65;3.40;;;5.60;99.90;;;;;;5068621;28;20044;-82
2021/11/09 06:57:11;;;;;;;10.32;5.20;;;5.70;99.90;;;;;;5085362;28;20048;-81
2021/11/09 06:59:37;;;;;;;4.97;3.72;;;5.60;99.90;;;;;;5104437;28;20048;-81
2021/11/09 07:02:04;;;;;;;5.65;4.10;;;6.00;99.90;;;;;;5099616;28;20083;-80
2021/11/09 07:04:30;;;;;;;4.18;2.90;;;5.70;99.90;;;;;;5103357;28;20097;-81
2021/11/09 07:06:56;;;;;;;12.35;3.92;;;5.60;99.90;;;;;;5099255;27;20032;-83
2021/11/09 07:09:23;;;;;;;7.63;3.65;;;5.70;99.90;;;;;;5082938;28;20094;-78
2021/11/09 07:11:49;;;;;;;17.05;4.10;;;5.70;99.90;;;;;;5097249;28;20093;-79
2021/11/09 07:14:16;;;;;;;13.20;5.38;;;5.70;99.90;;;;;;5086118;28;20090;-80
2021/11/09 07:16:44;;;;;;;10.02;3.47;;;5.80;99.90;;;;;;5096308;28;20051;-82
2021/11/09 07:19:11;;;;;;;11.07;3.85;;;6.30;99.90;;;;;;5070505;28;20076;-80
2021/11/09 07:21:37;;;;;;;8.50;3.47;;;5.80;99.90;;;;;;5069722;28;20040;-82
2021/11/09 07:24:04;;;;;;;3.72;2.63;;;5.80;99.90;;;;;;5070779;28;20048;-80
2021/11/09 07:26:30;;;;;;;2.42;2.10;;;5.70;99.90;;;;;;5104595;27;20473;-80
2021/11/09 07:28:57;;;;;;;4.78;3.58;;;5.70;99.90;;;;;;5104669;28;20072;-82
2021/11/09 07:31:27;;;;;;;9.93;3.13;;;6.00;99.90;;;;;;5072272;28;20049;-81
2021/11/09 07:33:53;;;;;;;14.45;3.78;;;5.80;99.90;;;;;;5076649;28;20055;-80
2021/11/09 07:36:20;;;;;;;4.00;2.50;;;5.80;99.90;;;;;;5101041;28;20402;-82
2021/11/09 07:38:47;;;;;;;3.83;3.40;;;5.80;99.90;;;;;;5102160;28;20036;-82
2021/11/09 07:41:13;;;;;;;4.20;2.45;;;5.90;99.90;;;;;;5070111;28;20186;-81
2021/11/09 07:43:39;;;;;;;;;;;5.90;99.90;;;;;;5070369;28;20044;-81
2021/11/09 07:46:05;;;;;;;3.33;3.03;;;5.90;99.90;;;;;;5055816;28;20037;-81
2021/11/09 07:48:31;;;;;;;4.13;3.35;;;6.00;99.90;;;;;;5103988;28;20048;-80
2021/11/09 07:50:57;;;;;;;;;;;6.10;99.90;;;;;;5099651;28;20032;-82
2021/11/09 07:53:29;;;;;;;6.82;3.33;;;6.20;99.90;;;;;;5070713;28;19920;-83
2021/11/09 07:56:17;;;;;;;5.10;3.63;;;6.10;99.90;;;;;;5103834;28;20042;-80
2021/11/09 08:01:28;;;;;;;4.78;2.63;;;6.30;99.90;;;;;;5099484;28;20052;-79
2021/11/09 08:06:40;;;;;;;6.22;4.13;;;6.30;99.90;;;;;;5094070;28;20041;-79
2021/11/09 08:09:11;;;;;;;14.27;3.17;;;6.60;99.90;;;;;;5117556;27;20052;-79
2021/11/09 08:11:40;;;;;;;7.03;4.47;;;6.40;99.90;;;;;;5060763;28;20473;-81
2021/11/09 08:14:08;;;;;;;9.88;2.92;;;6.50;99.90;;;;;;5073554;28;20120;-81
2021/11/09 08:16:34;;;;;;;7.22;4.20;;;6.50;99.90;;;;;;5085828;28;20048;-82
2021/11/09 08:19:00;;;;;;;;;;;6.60;99.90;;;;;;5100946;28;20379;-81
2021/11/09 08:21:27;;;;;;;2.72;2.53;;;6.70;99.90;;;;;;5070081;28;19970;-80
2021/11/09 08:23:52;;;;;;;;;;;6.80;99.90;;;;;;5063653;28;20071;-83
2021/11/09 08:26:22;;;;;;;14.35;4.32;;;6.80;99.90;;;;;;5106207;28;19951;-80
2021/11/09 08:28:48;;;;;;;6.68;3.90;;;6.90;99.90;;;;;;5046479;28;20029;-81
2021/11/09 08:31:17;;;;;;;5.05;2.88;;;7.00;99.90;;;;;;5094433;28;20120;-80
2021/11/09 08:33:43;;;;;;;4.65;2.88;;;7.00;99.90;;;;;;5090399;28;20049;-80
2021/11/09 08:36:14;;;;;;;4.50;2.60;;;7.10;99.90;;;;;;5081516;28;20052;-85
2021/11/09 08:38:41;;;;;;;4.53;3.53;;;7.20;99.90;;;;;;5046617;28;20082;-82
2021/11/09 08:41:08;;;;;;;2.50;2.00;;;7.30;99.90;;;;;;5119482;28;20040;-82
2021/11/09 08:43:39;;;;;;;6.20;3.13;;;7.30;99.90;;;;;;5104778;28;20056;-85
2021/11/09 08:47:07;;;;;;;7.85;3.58;;;7.40;99.90;;;;;;5108308;28;20052;-84
2021/11/09 08:49:03;;;;;;;5.38;3.85;;;7.50;99.90;;;;;;5058746;28;20053;-83
2021/11/09 08:51:29;;;;;;;10.00;3.03;;;7.60;99.90;;;;;;5073626;28;20053;-83
2021/11/09 08:53:59;;;;;;;6.95;4.10;;;7.60;99.90;;;;;;5108505;28;20040;-83
2021/11/09 09:04:51;;;;;;;7.25;2.60;;;7.80;99.90;;;;;;5108446;28;20127;-83
2021/11/09 09:07:17;;;;;;;7.75;4.35;;;7.90;99.90;;;;;;5074842;28;20052;-83
2021/11/09 09:09:43;;;;;;;4.03;3.05;;;8.00;99.90;;;;;;5107685;28;20051;-83
2021/11/09 09:12:09;;;;;;;11.20;4.28;;;8.10;99.90;;;;;;5090810;28;20086;-83
2021/11/09 09:14:35;;;;;;;9.23;2.78;;;8.10;99.90;;;;;;5057063;28;20119;-84
2021/11/09 09:17:02;;;;;;;5.50;3.30;;;8.70;99.90;;;;;;5107307;28;20037;-82
2021/11/09 09:19:35;;;;;;;3.20;2.85;;;8.30;99.90;;;;;;5073132;28;20410;-83
2021/11/09 09:29:47;;;;;;;9.50;4.72;;;8.60;99.90;;;;;;5074615;28;20052;-84
2021/11/09 09:32:45;;;;;;;9.32;4.75;;;8.60;99.90;;;;;;5088449;28;20044;-84
2021/11/09 09:57:11;;;;;;;4.05;2.00;;;9.00;99.90;;;;;;5104869;28;20044;-84
2021/11/09 09:59:38;;;;;;;2.17;1.98;;;9.10;99.90;;;;;;5057068;28;20053;-83
2021/11/09 10:02:28;;;;;;;8.98;4.50;;;9.20;99.90;;;;;;5098583;28;20049;-84
2021/11/09 10:05:11;;;;;;;11.18;3.25;;;9.30;99.90;;;;;;5084872;28;20505;-82
2021/11/09 10:07:50;;;;;;;6.30;3.00;;;9.30;99.90;;;;;;5070134;28;20040;-85
2021/11/09 10:10:20;;;;;;;8.15;4.13;;;9.40;99.90;;;;;;5071588;28;20036;-82
2021/11/09 10:13:01;;;;;;;5.45;2.30;;;9.50;99.90;;;;;;5092386;28;20033;-83
2021/11/09 10:15:32;;;;;;;3.78;3.38;;;9.60;99.90;;;;;;5106496;28;20044;-81
2021/11/09 10:18:06;;;;;;;18.85;3.97;;;9.60;99.90;;;;;;5105166;28;20044;-82
2021/11/09 10:20:41;;;;;;;4.18;2.30;;;9.70;99.90;;;;;;5070514;28;20455;-84
2021/11/09 10:23:11;;;;;;;13.63;5.13;;;9.80;99.90;;;;;;5071292;28;20048;-82
2021/11/09 10:25:37;;;;;;;3.53;2.30;;;9.90;99.90;;;;;;5084776;28;20048;-82
2021/11/09 10:28:21;;;;;;;5.53;3.30;;;10.00;99.90;;;;;;5064642;28;20379;-83
2021/11/09 10:30:55;;;;;;;3.30;2.08;;;10.00;99.90;;;;;;5076550;28;20515;-81
2021/11/09 10:33:24;;;;;;;7.93;3.00;;;10.10;99.90;;;;;;5056021;28;20040;-83
2021/11/09 10:35:51;;;;;;;3.58;2.28;;;10.20;99.90;;;;;;5106374;28;20083;-81
2021/11/09 10:38:25;;;;;;;10.13;2.95;;;10.20;99.90;;;;;;5106439;28;20076;-82
2021/11/09 10:40:51;;;;;;;6.43;3.35;;;10.20;99.90;;;;;;5106622;28;20052;-82
2021/11/09 10:43:21;;;;;;;2.80;2.42;;;10.20;99.90;;;;;;5068470;28;1122612;-84
2021/11/09 10:45:47;;;;;;;11.38;3.00;;;10.20;99.90;;;;;;5073731;28;20052;-83
2021/11/09 10:48:15;;;;;;;;;;;10.20;99.90;;;;;;5103146;28;20037;-82
2021/11/09 10:50:54;;;;;;;9.85;2.83;;;10.30;99.90;;;;;;5099402;28;19926;-84
2021/11/09 10:56:55;;;;;;;9.63;3.53;;;10.20;99.90;;;;;;5106588;28;20055;-84
2021/11/09 10:59:27;;;;;;;8.05;2.85;;;10.30;99.90;;;;;;5103958;28;20558;-82
2021/11/09 11:04:44;;;;;;;3.72;2.17;;;10.40;99.90;;;;;;5109408;27;20052;-82
2021/11/09 11:07:12;;;;;;;5.38;3.33;;;10.50;99.90;;;;;;5094596;28;20347;-80
2021/11/09 11:09:42;;;;;;;2.35;2.15;;;10.50;99.90;;;;;;5105586;28;20036;-82
2021/11/09 11:12:14;;;;;;;3.13;1.98;;;10.60;99.90;;;;;;5105148;28;20047;-82
2021/11/09 11:14:46;;;;;;;5.95;2.92;;;10.60;99.90;;;;;;5071747;28;20069;-83
2021/11/09 11:17:12;;;;;;;7.18;3.35;;;10.70;99.90;;;;;;5108068;27;20127;-84
2021/11/09 11:19:57;;;;;;;6.68;2.80;;;10.70;99.90;;;;;;5104690;28;20044;-82
2021/11/09 11:22:28;;;;;;;4.78;3.05;;;10.80;99.90;;;;;;5103043;28;20040;-82
2021/11/09 11:24:55;;;;;;;5.10;2.50;;;10.80;99.90;;;;;;5071606;28;20052;-83
2021/11/09 11:27:22;;;;;;;3.47;2.25;;;10.80;99.90;;;;;;5071560;28;20045;-84
2021/11/09 11:29:48;;;;;;;2.90;2.33;;;10.80;99.90;;;;;;5105547;28;20040;-82
2021/11/09 11:32:20;;;;;;;4.72;2.85;;;10.80;99.90;;;;;;5073522;28;20397;-83
2021/11/09 11:34:46;;;;;;;6.18;2.50;;;10.80;99.90;;;;;;5087784;28;20040;-84
2021/11/09 11:37:12;;;;;;;;;;;10.80;99.90;;;;;;5099786;28;20044;-83
2021/11/09 11:39:41;;;;;;;6.03;3.17;;;10.70;99.90;;;;;;5091350;28;19916;-81
2021/11/09 11:42:11;;;;;;;5.53;2.92;;;10.80;99.90;;;;;;5086950;28;20400;-83
2021/11/09 11:44:41;;;;;;;7.25;2.65;;;10.80;99.90;;;;;;5103673;28;20063;-83
2021/11/09 11:47:19;;;;;;;2.90;2.55;;;10.80;99.90;;;;;;5071825;28;20036;-83
2021/11/09 11:50:13;;;;;;;14.60;3.45;;;10.80;99.90;;;;;;5055273;28;20047;-83
2021/11/09 11:52:46;;;;;;;5.72;3.00;;;10.80;99.90;;;;;;5066880;28;20052;-83
2021/11/09 11:55:23;;;;;;;7.28;3.00;;;10.80;99.90;;;;;;5060500;28;20044;-83
2021/11/09 11:57:59;;;;;;;6.57;3.20;;;10.80;99.90;;;;;;5104372;28;20043;-82
2021/11/09 12:00:38;;;;;;;8.50;3.78;;;10.80;99.90;;;;;;5104152;28;20485;-82
2021/11/09 12:03:24;;;;;;;3.88;2.75;;;10.90;99.90;;;;;;5103273;28;20051;-83
2021/11/09 12:05:58;;;;;;;8.95;3.70;;;10.80;99.90;;;;;;5052568;28;20036;-81
2021/11/09 12:08:49;;;;;;;5.05;2.83;;;10.80;99.90;;;;;;5069947;28;20573;-82
2021/11/09 12:11:24;;;;;;;3.63;2.97;;;10.80;99.90;;;;;;5096788;28;20044;-82
2021/11/09 12:14:03;;;;;;;2.47;2.17;;;10.80;99.90;;;;;;5065033;28;20033;-82
2021/11/09 12:16:45;;;;;;;5.30;2.35;;;10.80;99.90;;;;;;5074477;28;20393;-84
2021/11/09 12:19:35;;;;;;;6.82;3.35;;;10.80;99.90;;;;;;5068387;28;20383;-83
2021/11/09 12:22:36;;;;;;;5.90;2.58;;;10.80;99.90;;;;;;5098599;28;20047;-83
2021/11/09 12:25:03;;;;;;;8.32;3.65;;;10.90;99.90;;;;;;5038922;28;20045;-83
2021/11/09 12:27:50;;;;;;;12.77;4.95;;;10.90;99.90;;;;;;5115426;28;20040;-80
2021/11/09 12:30:34;;;;;;;10.38;3.13;;;10.90;99.90;;;;;;5074910;28;20059;-81
2021/11/09 12:33:19;;;;;;;6.35;3.38;;;10.90;99.90;;;;;;5072105;28;20045;-81
2021/11/09 12:35:49;;;;;;;3.42;2.13;;;10.80;99.90;;;;;;5070611;28;20043;-84
2021/11/09 12:38:21;;;;;;;4.55;3.58;;;10.80;99.90;;;;;;5088041;28;20163;-84
2021/11/09 12:40:51;;;;;;;3.95;2.97;;;10.80;99.90;;;;;;5088059;28;20044;-84
2021/11/09 12:43:23;;;;;;;5.90;3.25;;;10.80;99.90;;;;;;5070598;28;20056;-83
2021/11/09 12:46:03;;;;;;;6.85;2.97;;;10.70;99.90;;;;;;5087205;28;20060;-83
2021/11/09 12:48:37;;;;;;;8.77;3.40;;;10.70;99.90;;;;;;5088589;28;20044;-83
2021/11/09 12:51:10;;;;;;;7.38;3.25;;;10.70;99.90;;;;;;5078951;28;20498;-82
2021/11/09 12:53:46;;;;;;;12.95;2.78;;;10.70;99.90;;;;;;5086281;28;20062;-84
2021/11/09 12:56:23;;;;;;;5.13;3.58;;;10.70;99.90;;;;;;5070087;28;20040;-83
2021/11/09 12:58:59;;;;;;;6.43;3.28;;;10.60;99.90;;;;;;5091484;28;20053;-82
2021/11/09 13:04:45;;;;;;;9.03;3.37;;;10.60;99.90;;;;;;5069940;28;20006;-85
2021/11/09 13:09:32;;;;;;;5.05;3.90;;;10.60;99.90;;;;;;5103894;28;20140;-83
2021/11/09 13:12:05;;;;;;;5.93;4.00;;;10.60;99.90;;;;;;5056129;28;20067;-84
2021/11/09 13:14:43;;;;;;;3.58;2.58;;;10.70;99.90;;;;;;5072228;28;20049;-83
2021/11/09 13:17:16;;;;;;;5.00;2.33;;;10.70;99.90;;;;;;5103535;28;20072;-83
2021/11/09 13:19:44;;;;;;;3.15;2.85;;;10.70;99.90;;;;;;5095872;28;20056;-83
2021/11/09 13:22:24;;;;;;;4.80;3.15;;;10.70;99.90;;;;;;5073736;28;20045;-84
2021/11/09 13:25:00;;;;;;;4.43;2.30;;;10.70;99.90;;;;;;5062599;28;20076;-83
2021/11/09 13:27:46;;;;;;;6.20;3.30;;;10.70;99.90;;;;;;5067045;28;20063;-85
2021/11/09 13:30:12;;;;;;;4.17;3.10;;;10.60;99.90;;;;;;5100949;28;20075;-83
2021/11/09 13:32:38;;;;;;;;;;;10.60;99.90;;;;;;5082855;28;20051;-84
2021/11/09 13:35:34;;;;;;;2.67;2.30;;;10.60;99.90;;;;;;5098429;28;20369;-82
2021/11/09 13:38:08;;;;;;;2.83;2.42;;;10.60;99.90;;;;;;5083492;28;20059;-83
2021/11/09 13:40:34;;;;;;;5.57;3.33;;;10.60;99.90;;;;;;5097337;28;20045;-83
2021/11/09 13:43:03;;;;;;;3.28;2.85;;;10.60;99.90;;;;;;5089711;28;20498;-84
2021/11/09 13:45:29;;;;;;;3.90;2.70;;;10.50;99.90;;;;;;5068858;28;20045;-82
2021/11/09 13:47:55;;;;;;;;;;;10.60;99.90;;;;;;5080279;28;20039;-83
2021/11/09 13:50:21;;;;;;;6.72;4.05;;;10.60;99.90;;;;;;5090550;28;19916;-81
2021/11/09 13:52:49;;;;;;;7.80;4.18;;;10.60;99.90;;;;;;5076775;28;20378;-80
2021/11/09 13:55:18;;;;;;;8.68;3.63;;;10.50;99.90;;;;;;5068604;28;20040;-84
2021/11/09 13:57:45;;;;;;;8.57;3.38;;;10.50;99.90;;;;;;5057448;28;20050;-82
2021/11/09 14:00:38;;;;;;;5.10;3.95;;;10.50;99.90;;;;;;5079183;28;20131;-85
2021/11/09 14:08:55;;;;;;;6.85;3.50;;;10.50;99.90;;;;;;5106822;27;20064;-85
2021/11/09 14:19:02;;;;;;;4.40;2.92;;;10.60;99.90;;;;;;5106661;28;20453;-86
2021/11/09 14:21:49;;;;;;;7.00;2.75;;;10.60;99.90;;;;;;5101968;28;20036;-83
2021/11/09 14:24:28;;;;;;;9.93;3.70;;;10.60;99.90;;;;;;5067758;28;20047;-83
2021/11/09 14:27:34;;;;;;;4.57;3.08;;;10.50;99.90;;;;;;5108131;28;20063;-84
2021/11/09 14:30:00;;;;;;;7.40;3.33;;;10.50;99.90;;;;;;5099825;27;20056;-82
2021/11/09 14:32:33;;;;;;;6.03;3.38;;;10.50;99.90;;;;;;5103955;28;20374;-82
2021/11/09 14:35:20;;;;;;;5.93;2.88;;;10.50;99.90;;;;;;5105879;28;20056;-83
2021/11/09 14:38:00;;;;;;;5.35;2.60;;;10.50;99.90;;;;;;5099087;28;20040;-84
2021/11/09 14:40:36;;;;;;;3.97;2.40;;;10.50;99.90;;;;;;5067209;28;20033;-83
2021/11/09 14:43:21;;;;;;;;;;;10.50;99.90;;;;;;5089041;28;20072;-83
2021/11/09 14:46:05;;;;;;;4.60;2.70;;;10.20;99.90;;;;;;5084167;28;20023;-82
2021/11/09 14:48:54;;;;;;;7.03;3.03;;;10.40;99.90;;;;;;5093975;28;20052;-83
2021/11/09 14:51:31;;;;;;;5.43;1.88;;;10.40;99.90;;;;;;5105402;27;20044;-84
2021/11/09 14:54:11;;;;;;;8.52;2.72;;;10.40;99.90;;;;;;5106373;28;20119;-84
2021/11/09 14:56:38;;;;;;;7.65;2.90;;;10.40;99.90;;;;;;5103635;28;20482;-85
2021/11/09 14:59:08;;;;;;;4.03;3.20;;;10.40;99.90;;;;;;5109376;27;20044;-83
2021/11/09 15:01:44;;;;;;;12.07;3.35;;;10.40;99.90;;;;;;5071660;28;20127;-83
2021/11/09 15:04:20;;;;;;;10.15;3.15;;;10.30;99.90;;;;;;5071692;28;20052;-82
2021/11/09 15:09:51;;;;;;;7.38;3.22;;;10.30;99.90;;;;;;5105352;28;20056;-83
2021/11/09 15:26:19;;;;;;;1.90;1.70;;;10.10;99.90;;;;;;5070053;28;20079;-85
2021/11/09 15:28:55;;;;;;;4.47;2.78;;;10.10;99.90;;;;;;5095200;27;20052;-81
2021/11/09 15:33:50;;;;;;;10.57;2.63;;;10.00;99.90;;;;;;5070214;28;20489;-83
2021/11/09 15:38:50;;;;;;;5.32;2.97;;;10.00;99.90;;;;;;5066390;28;20091;-83
2021/11/09 15:41:17;;;;;;;10.68;2.97;;;10.00;99.90;;;;;;5036599;28;20044;-82
2021/11/09 15:43:44;;;;;;;10.30;2.97;;;10.00;99.90;;;;;;5045772;28;20056;-84
2021/11/09 15:46:10;;;;;;;3.28;2.65;;;9.90;99.90;;;;;;5067923;28;20044;-82
2021/11/09 15:48:37;;;;;;;5.28;3.30;;;10.00;99.90;;;;;;5062886;28;20397;-82
2021/11/09 15:51:04;;;;;;;3.97;2.63;;;10.00;99.90;;;;;;5059030;28;20432;-85
2021/11/09 15:53:31;;;;;;;7.72;3.65;;;10.00;99.90;;;;;;5068402;28;20136;-82
2021/11/09 15:56:01;;;;;;;22.63;3.85;;;10.00;99.90;;;;;;5034558;28;909759;-85
2021/11/09 15:58:28;;;;;;;5.90;2.60;;;10.00;99.90;;;;;;5078899;28;20070;-84
2021/11/09 16:00:53;;;;;;;7.55;3.75;;;10.00;99.90;;;;;;5082856;28;20051;-83
2021/11/09 16:03:20;;;;;;;2.58;1.90;;;10.00;99.90;;;;;;5108361;28;20050;-81
2021/11/09 16:05:50;;;;;;;4.32;3.17;;;9.90;99.90;;;;;;5061299;28;20056;-82
2021/11/09 16:08:16;;;;;;;6.45;3.42;;;9.90;99.90;;;;;;5064176;28;20039;-82
2021/11/09 16:10:43;;;;;;;13.90;3.67;;;9.90;99.90;;;;;;5075170;28;20048;-81
2021/11/09 16:13:08;;;;;;;;;;;9.90;99.90;;;;;;5069529;28;20047;-83
2021/11/09 16:15:35;;;;;;;9.95;4.90;;;9.90;99.90;;;;;;5087047;28;19920;-82
2021/11/09 16:18:01;;;;;;;3.55;3.05;;;9.90;99.90;;;;;;5075363;28;20108;-81
2021/11/09 16:20:28;;;;;;;5.60;3.38;;;9.90;99.90;;;;;;5067731;28;20043;-83
2021/11/09 16:22:55;;;;;;;2.90;1.90;;;9.90;99.90;;;;;;5067301;28;20413;-83
2021/11/09 16:25:21;;;;;;;9.55;3.40;;;9.90;99.90;;;;;;5079665;28;20047;-81